Latest Weather Observations for Yanakie

IDV60801

Issued at 4:35 pm EDT Sunday 26 October 2014 (issued every 30 minutes, with the page automatically refreshed every 10 minutes)

About weather observations | Map of weather stations | Latest weather observations for VIC | Other Formats
Station Details ID: 085301 Name: YANAKIE Lat: -38.81 Lon: 146.19 Height: 13.3 m
Data from the previous 72 hours. | See also: Recent months at Yanakie
Date/Time
EDT
Temp
°C
App
Temp
°C
Dew
Point
Rel
Hum
%
Delta-T
°C
Wind Press
QNH
hPa
Press
MSL
hPa
Rain
since 9 am
mm
Dir
 
Spd
km/h
Gust
km/h
Spd
kts
Gust
kts
26/04:30pm 14.9 12.8 11.1 78 2.0 SSW 13 19 7 10 1011.6 1011.6 0.2
26/04:00pm 15.1 13.0 11.1 77 2.1 SSW 13 19 7 10 1012.2 1012.2 0.2
26/03:30pm 14.8 13.0 11.0 78 2.0 SSW 11 17 6 9 1012.4 1012.4 0.2
26/03:00pm 15.0 12.1 11.0 77 2.1 SSW 17 24 9 13 1012.8 1012.8 0.2
26/02:30pm 15.0 10.8 11.0 77 2.1 SW 24 32 13 17 1013.5 1013.5 0.2
26/02:00pm 15.8 12.4 11.4 75 2.4 SW 20 26 11 14 1013.1 1013.1 0.2
26/01:30pm 16.6 13.9 11.7 73 2.7 SSW 17 22 9 12 1012.7 1012.7 0.2
26/01:00pm 16.5 14.2 11.9 74 2.5 SSW 15 22 8 12 1013.0 1013.0 0.2
26/12:30pm 16.6 14.4 12.0 74 2.5 SSW 15 20 8 11 1013.2 1013.2 0.2
26/12:00pm 16.4 14.6 12.0 75 2.4 SW 13 19 7 10 1013.7 1013.7 0.2
26/11:30am 15.4 12.9 11.0 75 2.3 SW 15 19 8 10 1014.2 1014.2 0.2
26/11:00am 15.6 12.6 11.8 78 2.1 SW 19 26 10 14 1014.6 1014.6 0.2
26/10:30am 14.6 11.9 11.6 82 1.6 SW 17 20 9 11 1014.4 1014.4 0.0
26/10:00am 13.9 11.4 11.1 83 1.5 SW 15 22 8 12 1014.4 1014.4 0.0
26/09:30am 13.9 11.6 11.6 86 1.2 SW 15 20 8 11 1014.3 1014.3 0.0
26/09:00am 13.9 12.5 12.1 89 1.0 SW 11 15 6 8 1014.0 1014.0 0.0
26/08:30am 13.9 12.6 12.6 92 0.7 SW 11 15 6 8 1014.0 1014.0 0.0
26/08:00am 13.2 11.8 12.3 94 0.5 SW 11 15 6 8 1013.6 1013.6 0.0
26/07:30am 12.9 11.8 12.1 95 0.4 SW 9 11 5 6 1013.5 1013.5 0.0
26/07:00am 12.3 11.1 11.7 96 0.3 WSW 9 11 5 6 1013.5 1013.5 0.0
26/06:30am 12.0 11.3 11.4 96 0.3 SSW 6 9 3 5 1013.2 1013.2 0.0
26/06:00am 12.0 11.3 11.4 96 0.3 SSW 6 7 3 4 1013.2 1013.2 0.0
26/05:30am 11.9 11.0 11.3 96 0.3 SSW 7 9 4 5 1013.2 1013.2 0.0
26/05:00am 11.9 11.0 11.3 96 0.3 SSW 7 11 4 6 1013.0 1013.0 0.0
26/04:30am 12.2 10.2 11.6 96 0.3 SW 13 19 7 10 1013.1 1013.1 0.0
26/04:00am 12.5 12.3 11.9 96 0.3 SSW 4 6 2 3 1012.9 1012.9 0.0
26/03:30am 12.6 12.1 12.0 96 0.3 SSW 6 6 3 3 1013.2 1013.2 0.0
26/03:00am 12.4 11.8 11.6 95 0.4 SSW 6 9 3 5 1013.4 1013.4 0.0
26/02:30am 12.4 11.8 11.6 95 0.4 SW 6 7 3 4 1013.9 1013.9 0.0
26/02:00am 12.5 12.6 11.6 94 0.5 S 2 7 1 4 1014.0 1014.0 0.0
26/01:30am 12.5 12.2 11.4 93 0.6 SSE 4 6 2 3 1014.5 1014.5 0.0
26/01:00am 12.6 12.3 11.3 92 0.7 SE 4 7 2 4 1015.0 1015.0 0.0
26/12:30am 12.9 12.6 11.5 91 0.7 SE 4 6 2 3 1015.7 1015.7 0.0
26/12:00am 13.1 13.1 11.3 89 0.9 SSE 2 4 1 2 1016.1 1016.1 0.0
 
Date/Time
EDT
Temp
°C
App
Temp
°C
Dew
Point
Rel
Hum
%
Delta-T
°C
Wind Press
QNH
hPa
Press
MSL
hPa
Rain
since 9 am
mm
Dir
 
Spd
km/h
Gust
km/h
Spd
kts
Gust
kts
25/11:30pm 13.3 12.9 11.2 87 1.1 SE 4 6 2 3 1016.1 1016.1 0.0
25/11:00pm 13.4 13.8 11.1 86 1.2 CALM 0 0 0 0 1016.2 1016.2 0.0
25/10:30pm 13.3 13.6 11.0 86 1.2 CALM 0 0 0 0 1016.4 1016.4 0.0
25/10:00pm 13.3 12.8 10.8 85 1.3 SSW 4 6 2 3 1016.7 1016.7 0.0
25/09:30pm 13.2 12.7 10.9 86 1.2 S 4 6 2 3 1016.5 1016.5 0.0
25/09:00pm 13.1 12.3 11.0 87 1.1 SSW 6 7 3 4 1016.6 1016.6 0.0
25/08:30pm 13.3 12.9 11.0 86 1.2 S 4 6 2 3 1016.4 1016.4 0.0
25/08:00pm 13.4 12.9 10.9 85 1.3 S 4 6 2 3 1016.1 1016.1 0.0
25/07:30pm 13.6 12.8 11.1 85 1.3 S 6 7 3 4 1016.2 1016.2 0.0
25/07:00pm 14.0 12.3 11.3 84 1.4 S 11 19 6 10 1015.7 1015.7 0.0
25/06:30pm 14.3 13.0 11.3 82 1.6 S 9 15 5 8 1015.4 1015.4 0.0
25/06:00pm 14.7 13.1 11.7 82 1.6 S 11 17 6 9 1015.4 1015.4 0.0
25/05:30pm 14.4 12.4 11.4 82 1.6 SSW 13 17 7 9 1015.5 1015.5 0.0
25/05:00pm 15.0 13.1 11.8 81 1.7 SSW 13 19 7 10 1015.4 1015.4 0.0
25/04:30pm 15.2 12.9 11.8 80 1.8 SSW 15 22 8 12 1015.5 1015.5 0.0
25/04:00pm 16.3 14.1 12.1 76 2.3 SW 15 22 8 12 1015.4 1015.4 0.0
25/03:30pm 15.3 11.9 11.1 76 2.2 SSW 20 24 11 13 1015.5 1015.5 0.0
25/03:00pm 15.9 12.8 12.3 79 2.0 SW 20 26 11 14 1015.9 1015.9 0.0
25/02:30pm 15.1 11.8 10.9 76 2.2 SSW 19 24 10 13 1016.2 1016.2 0.0
25/02:00pm 15.8 12.3 10.8 72 2.7 SW 20 24 11 13 1016.2 1016.2 0.0
25/01:30pm 16.3 13.4 11.0 71 2.8 SW 17 22 9 12 1016.1 1016.1 0.0
25/01:00pm 17.2 15.0 12.1 72 2.8 SSW 15 20 8 11 1016.1 1016.1 0.0
25/12:30pm 16.4 14.1 11.6 73 2.6 SSW 15 20 8 11 1016.3 1016.3 0.0
25/12:00pm 17.2 15.3 11.9 71 2.9 SW 13 19 7 10 1016.7 1016.7 0.0
25/11:30am 16.6 14.3 11.7 73 2.7 W 15 22 8 12 1017.2 1017.2 0.0
25/11:00am 15.9 14.1 10.9 72 2.7 WSW 11 19 6 10 1017.5 1017.5 0.0
25/10:30am 14.7 12.1 10.7 77 2.1 WSW 15 19 8 10 1017.8 1017.8 0.0
25/10:00am 14.5 12.0 10.9 79 1.9 WSW 15 22 8 12 1017.8 1017.8 0.0
25/09:30am 14.5 12.3 10.9 79 1.9 WSW 13 19 7 10 1017.7 1017.7 0.0
25/09:00am 14.3 12.8 11.8 85 1.3 W 11 17 6 9 1017.7 1017.7 0.0
25/08:30am 13.5 12.3 11.6 88 1.0 W 9 15 5 8 1017.7 1017.7 0.0
25/08:00am 13.3 11.3 11.5 89 1.0 W 13 17 7 9 1017.4 1017.4 0.0
25/07:30am 12.9 11.7 11.5 91 0.7 WNW 9 13 5 7 1017.1 1017.1 0.0
25/07:00am 12.7 11.4 11.3 91 0.7 W 9 15 5 8 1016.8 1016.8 0.0
25/06:30am 12.7 10.2 11.1 90 0.8 W 15 19 8 10 1016.6 1016.6 0.0
25/06:00am 13.2 10.7 11.1 87 1.1 W 15 22 8 12 1016.3 1016.3 0.0
25/05:30am 13.1 10.2 11.0 87 1.1 W 17 24 9 13 1016.1 1016.1 0.0
25/05:00am 13.4 9.9 10.8 84 1.4 W 20 26 11 14 1015.8 1015.8 0.0
25/04:30am 13.5 8.8 10.5 82 1.6 W 26 35 14 19 1015.4 1015.4 0.0
25/04:00am 13.5 9.2 10.7 83 1.5 W 24 33 13 18 1015.4 1015.4 0.0
25/03:30am 13.7 9.9 11.0 84 1.4 WSW 22 30 12 16 1015.3 1015.3 0.0
25/03:00am 13.7 9.1 11.2 85 1.3 W 26 35 14 19 1015.4 1015.4 0.0
25/02:30am 13.9 10.7 11.2 84 1.4 W 19 24 10 13 1015.3 1015.3 0.0
25/02:00am 13.9 9.3 11.2 84 1.4 W 26 35 14 19 1015.3 1015.3 0.0
25/01:30am 13.9 9.0 11.4 85 1.3 W 28 37 15 20 1015.4 1015.4 0.0
25/01:00am 14.1 10.2 12.1 88 1.1 W 24 32 13 17 1015.2 1015.2 0.0
25/12:30am 14.2 11.3 12.8 91 0.8 W 20 28 11 15 1015.4 1015.4 0.0
25/12:00am 14.2 11.3 12.9 92 0.7 W 20 28 11 15 1015.1 1015.1 0.0
 
Date/Time
EDT
Temp
°C
App
Temp
°C
Dew
Point
Rel
Hum
%
Delta-T
°C
Wind Press
QNH
hPa
Press
MSL
hPa
Rain
since 9 am
mm
Dir
 
Spd
km/h
Gust
km/h
Spd
kts
Gust
kts
24/11:30pm 14.2 12.7 13.2 94 0.6 W 13 19 7 10 1015.1 1015.1 0.0
24/11:00pm 13.9 13.1 13.0 94 0.5 WNW 9 15 5 8 1014.9 1014.9 0.0
24/10:30pm 13.3 11.9 12.2 93 0.6 W 11 15 6 8 1014.6 1014.6 0.0
24/10:00pm 13.9 13.1 12.8 93 0.6 W 9 13 5 7 1014.5 1014.5 0.0
24/09:30pm 14.8 12.7 13.5 92 0.7 WSW 17 20 9 11 1014.2 1014.2 0.0
24/09:00pm 15.3 12.8 14.0 92 0.7 WSW 20 30 11 16 1014.0 1014.0 0.0
24/08:30pm 15.8 11.8 14.0 89 1.0 WSW 28 39 15 21 1013.4 1013.4 0.0
24/08:00pm 15.7 13.5 13.4 86 1.3 WSW 17 22 9 12 1012.7 1012.7 0.0
24/07:30pm 16.3 14.9 13.4 83 1.6 WSW 13 17 7 9 1012.0 1012.0 0.0
24/07:00pm 17.4 15.7 13.5 78 2.2 SW 15 20 8 11 1011.2 1011.2 0.0
24/06:30pm 18.8 16.4 14.5 76 2.5 SW 20 26 11 14 1010.7 1010.7 0.0
24/06:00pm 19.9 17.3 14.9 73 2.9 SW 22 28 12 15 1010.6 1010.6 0.0
24/05:30pm 20.9 19.2 15.7 72 3.1 SW 19 24 10 13 1010.3 1010.3 0.0
24/05:00pm 22.4 20.8 16.0 67 3.9 SW 19 28 10 15 1010.1 1010.1 0.0
24/04:30pm 22.9 19.8 15.5 63 4.4 WSW 26 35 14 19 1010.1 1010.1 0.0
24/04:00pm 23.9 23.0 18.3 71 3.5 WSW 20 28 11 15 1010.2 1010.2 0.0
24/03:30pm 22.5 25.9 19.3 82 2.0 CALM 0 4 0 2 1010.1 1010.1 0.0
24/03:00pm 20.6 22.1 17.6 83 1.8 NNE 6 9 3 5 1010.0 1010.0 0.0
24/02:30pm 20.2 21.4 17.4 84 1.7 NE 7 11 4 6 1010.1 1010.1 0.0
24/02:00pm 19.4 20.4 16.8 85 1.6 ENE 7 9 4 5 1010.5 1010.5 0.0
24/01:30pm 19.6 20.7 17.2 86 1.5 ENE 7 13 4 7 1010.6 1010.6 0.0
24/01:00pm 18.5 18.6 16.5 88 1.2 ENE 11 15 6 8 1011.0 1011.0 0.0
24/12:30pm 17.9 17.5 16.2 90 1.0 ENE 13 19 7 10 1011.1 1011.1 0.0
24/12:00pm 17.4 16.5 15.9 91 0.9 ENE 15 20 8 11 1011.5 1011.5 0.0
24/11:30am 17.8 16.8 16.7 93 0.7 ENE 17 22 9 12 1011.9 1011.9 0.0
24/11:00am 17.4 16.0 16.6 95 0.5 ENE 19 26 10 14 1012.1 1012.1 0.0
24/10:30am 16.7 15.1 16.1 96 0.4 ENE 19 28 10 15 1012.3 1012.3 0.0
24/10:00am 16.7 15.0 16.2 97 0.3 ENE 20 32 11 17 1012.4 1012.4 0.0
24/09:30am 16.7 14.7 16.4 98 0.2 ENE 22 32 12 17 1012.5 1012.5 0.0
24/09:00am 16.4 14.3 16.1 98 0.2 ENE 22 33 12 18 1012.7 1012.7 0.2
24/08:30am 16.1 13.9 15.9 99 0.1 ENE 22 32 12 17 1012.9 1012.9 0.2
24/08:00am 15.9 13.2 15.7 99 0.1 E 24 39 13 21 1013.2 1013.2 0.2
24/07:30am 15.7 13.0 15.5 99 0.1 E 24 37 13 20 1013.3 1013.3 0.2
24/07:00am 15.7 12.2 15.5 99 0.1 ENE 28 41 15 22 1013.5 1013.5 0.2
24/06:30am 15.6 11.7 15.4 99 0.1 ENE 30 43 16 23 1013.5 1013.5 0.2
24/06:00am 15.6 11.7 15.4 99 0.1 E 30 41 16 22 1013.6 1013.6 0.2
24/05:30am 15.6 11.3 15.3 98 0.2 ENE 32 44 17 24 1013.5 1013.5 0.2
24/05:09am 15.5 10.9 15.2 98 0.2 ENE 33 52 18 28 1013.3 1013.3 0.2
24/05:00am 15.5 10.6 15.2 98 0.2 ENE 35 50 19 27 1013.4 1013.4 0.2
24/04:39am 15.5 10.9 15.2 98 0.2 ENE 33 54 18 29 1013.4 1013.4 0.0
24/04:30am 15.5 10.6 15.2 98 0.2 ENE 35 52 19 28 1013.5 1013.5 0.0
24/04:00am 15.5 10.1 15.0 97 0.3 E 37 57 20 31 1013.8 1013.8 0.0
24/03:59am 15.5 10.1 15.0 97 0.3 E 37 57 20 31 1013.7 1013.7 0.0
24/03:30am 15.4 10.3 14.9 97 0.3 ENE 35 50 19 27 1014.1 1014.1 0.0
24/03:00am 15.3 10.6 14.8 97 0.3 E 33 48 18 26 1014.8 1014.8 0.0
24/02:31am 15.2 10.6 14.7 97 0.3 E 32 50 17 27 1015.3 1015.3 0.0
24/02:30am 15.2 10.4 14.7 97 0.3 E 33 50 18 27 1015.3 1015.3 0.0
24/02:00am 15.0 10.7 14.5 97 0.3 E 30 52 16 28 1015.7 1015.7 0.0
24/01:30am 14.7 10.7 14.1 96 0.3 E 28 46 15 25 1016.3 1016.3 0.0
24/01:05am 14.6 10.2 14.0 96 0.3 E 30 54 16 29 1016.8 1016.8 0.0
24/01:00am 14.7 10.7 14.1 96 0.3 E 28 46 15 25 1017.0 1017.0 0.0
24/12:30am 14.6 10.5 13.8 95 0.4 E 28 50 15 27 1017.3 1017.3 0.0
24/12:13am 14.8 10.7 13.8 94 0.6 E 28 52 15 28 1017.5 1017.5 0.0
24/12:00am 14.8 10.7 13.7 93 0.6 E 28 46 15 25 1017.6 1017.6 0.0
 
Date/Time
EDT
Temp
°C
App
Temp
°C
Dew
Point
Rel
Hum
%
Delta-T
°C
Wind Press
QNH
hPa
Press
MSL
hPa
Rain
since 9 am
mm
Dir
 
Spd
km/h
Gust
km/h
Spd
kts
Gust
kts
23/11:35pm 14.7 10.1 13.6 93 0.6 E 30 48 16 26 1017.7 1017.7 0.0
23/11:30pm 14.7 10.5 13.6 93 0.6 E 28 43 15 23 1017.8 1017.8 0.0
23/11:00pm 14.6 10.3 13.3 92 0.7 E 28 41 15 22 1018.2 1018.2 0.0
23/10:33pm 14.6 10.3 13.3 92 0.7 E 28 48 15 26 1018.5 1018.5 0.0
23/10:30pm 14.6 10.3 13.1 91 0.8 E 28 44 15 24 1018.6 1018.6 0.0
23/10:00pm 14.7 10.4 13.2 91 0.8 E 28 46 15 25 1019.0 1019.0 0.0
23/09:45pm 14.7 10.0 13.1 90 0.9 E 30 50 16 27 1019.1 1019.1 0.0
23/09:30pm 14.6 9.8 13.0 90 0.9 E 30 46 16 25 1019.3 1019.3 0.0
23/09:00pm 14.5 9.6 12.7 89 1.0 E 30 48 16 26 1019.3 1019.3 0.0
23/08:30pm 14.4 9.9 12.6 89 1.0 E 28 48 15 26 1019.3 1019.3 0.0
23/08:26pm 14.4 9.9 12.6 89 1.0 E 28 48 15 26 1019.3 1019.3 0.0
23/08:00pm 14.4 10.3 12.6 89 1.0 E 26 41 14 22 1019.4 1019.4 0.0
23/07:30pm 14.4 9.8 12.4 88 1.1 E 28 44 15 24 1019.2 1019.2 0.0
23/07:00pm 14.5 10.0 12.5 88 1.1 E 28 48 15 26 1019.1 1019.1 0.0
23/06:30pm 14.7 10.2 12.6 87 1.1 E 28 52 15 28 1019.2 1019.2 0.0
23/06:29pm 14.7 10.2 12.6 87 1.1 E 28 52 15 28 1019.1 1019.1 0.0
23/06:00pm 14.6 10.1 12.5 87 1.1 E 28 46 15 25 1019.1 1019.1 0.0
23/05:30pm 15.2 10.3 12.7 85 1.4 E 30 50 16 27 1019.2 1019.2 0.0
23/05:00pm 15.4 11.0 12.9 85 1.4 E 28 48 15 26 1019.3 1019.3 0.0
23/04:59pm 15.5 11.1 13.0 85 1.4 E 28 48 15 26 1019.3 1019.3 0.0

Other Formats:

Comma delimited format used in spreadsheet applications
http://www.bom.gov.au/fwo/IDV60801/IDV60801.94911.axf

JavaScript Object Notation format (JSON) in row-major order
http://www.bom.gov.au/fwo/IDV60801/IDV60801.94911.json